createdAt,value
2023-01-29T00:01:38.867Z,4.20
2023-01-29T00:04:32.325Z,4.15
2023-01-29T00:07:25.339Z,3.72
2023-01-29T00:10:20.005Z,3.42
2023-01-29T00:13:13.458Z,3.00
2023-01-29T00:16:06.577Z,4.35
2023-01-29T00:18:58.957Z,4.50
2023-01-29T00:21:51.949Z,3.20
2023-01-29T00:24:45.820Z,4.70
2023-01-29T00:27:40.382Z,3.38
2023-01-29T00:30:33.248Z,2.45
2023-01-29T00:33:26.450Z,4.28
2023-01-29T00:36:20.451Z,3.88
2023-01-29T00:39:13.526Z,4.25
2023-01-29T00:42:24.742Z,2.17
2023-01-29T00:45:19.812Z,3.55
2023-01-29T00:48:13.301Z,2.95
2023-01-29T00:51:06.674Z,3.78
2023-01-29T00:54:00.937Z,3.97
2023-01-29T00:56:54.154Z,2.58
2023-01-29T00:59:47.145Z,3.40
2023-01-29T01:02:58.965Z,3.90
2023-01-29T01:05:52.152Z,2.25
2023-01-29T01:09:14.387Z,3.42
2023-01-29T01:12:07.621Z,2.85
2023-01-29T01:15:00.367Z,2.42
2023-01-29T01:17:55.897Z,2.00
2023-01-29T01:20:51.509Z,3.13
2023-01-29T01:23:44.097Z,3.63
2023-01-29T01:26:37.223Z,2.83
2023-01-29T01:29:30.400Z,4.35
2023-01-29T01:32:23.169Z,2.33
2023-01-29T01:35:17.888Z,2.92
2023-01-29T01:38:12.537Z,2.55
2023-01-29T01:41:05.358Z,3.97
2023-01-29T01:44:00.534Z,3.55
2023-01-29T01:46:53.282Z,2.33
2023-01-29T01:49:47.285Z,3.90
2023-01-29T01:52:46.130Z,2.88
2023-01-29T01:55:43.616Z,3.03
2023-01-29T01:58:40.946Z,3.10
2023-01-29T02:01:35.023Z,2.72
2023-01-29T02:04:46.266Z,2.15
2023-01-29T02:08:04.176Z,3.45
2023-01-29T02:10:57.383Z,3.20
2023-01-29T02:13:53.557Z,2.63
2023-01-29T02:16:46.609Z,2.60
2023-01-29T02:19:48.005Z,2.72
2023-01-29T02:23:03.686Z,3.05
2023-01-29T02:26:28.181Z,3.10
2023-01-29T02:29:33.205Z,3.63
2023-01-29T02:32:32.111Z,3.67
2023-01-29T02:35:31.773Z,3.13
2023-01-29T02:38:31.679Z,2.80
2023-01-29T02:41:29.960Z,2.00
2023-01-29T02:44:31.484Z,2.75
2023-01-29T02:47:31.491Z,3.55
2023-01-29T02:50:29.504Z,2.45
2023-01-29T02:53:28.596Z,2.97
2023-01-29T02:56:25.239Z,2.25
2023-01-29T02:59:21.585Z,2.50
2023-01-29T03:02:21.388Z,2.13
2023-01-29T03:05:18.685Z,1.95
2023-01-29T03:08:16.569Z,3.42
2023-01-29T03:11:13.756Z,2.85
2023-01-29T03:14:13.310Z,2.75
2023-01-29T03:17:10.386Z,2.55
2023-01-29T03:20:07.631Z,2.05
2023-01-29T03:23:04.737Z,2.60
2023-01-29T03:26:18.148Z,1.80
2023-01-29T03:29:31.230Z,3.25
2023-01-29T03:32:26.655Z,1.52
2023-01-29T03:35:36.663Z,2.10
2023-01-29T03:38:32.203Z,2.30
2023-01-29T03:41:29.744Z,2.05
2023-01-29T03:44:31.741Z,1.83
2023-01-29T03:47:34.405Z,2.65
2023-01-29T03:50:38.728Z,1.48
2023-01-29T03:53:43.885Z,1.75
2023-01-29T03:56:56.711Z,3.38
2023-01-29T03:59:58.739Z,1.30
2023-01-29T04:02:58.397Z,1.33
2023-01-29T04:06:05.301Z,2.55
2023-01-29T04:09:01.964Z,2.53
2023-01-29T04:12:00.975Z,1.40
2023-01-29T04:14:55.447Z,1.52
2023-01-29T04:17:52.646Z,2.55
2023-01-29T04:20:45.587Z,3.63
2023-01-29T04:23:39.485Z,1.80
2023-01-29T04:26:57.137Z,1.80
2023-01-29T04:30:01.727Z,1.50
2023-01-29T04:33:04.139Z,2.22
2023-01-29T04:36:10.269Z,2.00
2023-01-29T04:39:14.311Z,1.70
2023-01-29T04:42:14.685Z,2.08
2023-01-29T04:45:17.682Z,2.13
2023-01-29T04:48:20.265Z,1.38
2023-01-29T04:51:21.211Z,1.15
2023-01-29T04:54:21.165Z,1.92
2023-01-29T04:57:25.466Z,2.35
2023-01-29T05:00:23.893Z,1.55
2023-01-29T05:03:17.952Z,1.55
2023-01-29T05:06:12.737Z,2.70
2023-01-29T05:09:05.697Z,1.98
2023-01-29T05:12:01.402Z,1.60
2023-01-29T05:14:56.436Z,1.92
2023-01-29T05:17:49.491Z,2.45
2023-01-29T05:20:45.119Z,1.73
2023-01-29T05:23:38.678Z,3.25
2023-01-29T05:26:48.500Z,1.52
2023-01-29T05:29:46.709Z,2.03
2023-01-29T05:32:40.581Z,2.17
2023-01-29T05:35:33.874Z,2.47
2023-01-29T05:38:27.845Z,2.22
2023-01-29T05:41:21.408Z,1.65
2023-01-29T05:44:14.923Z,1.60
2023-01-29T05:47:09.687Z,2.42
2023-01-29T05:50:02.634Z,1.95
2023-01-29T05:52:59.479Z,1.55
2023-01-29T05:55:52.570Z,1.10
2023-01-29T05:58:45.516Z,1.63
2023-01-29T06:01:38.432Z,1.13
2023-01-29T06:04:32.472Z,1.45
2023-01-29T06:07:28.072Z,2.42
2023-01-29T06:10:21.588Z,1.60
2023-01-29T06:13:14.663Z,2.03
2023-01-29T06:16:08.716Z,1.65
2023-01-29T06:19:01.691Z,2.60
2023-01-29T06:21:55.891Z,2.15
2023-01-29T06:24:49.267Z,1.75
2023-01-29T06:27:42.544Z,1.65
2023-01-29T06:30:35.551Z,1.70
2023-01-29T06:33:28.490Z,2.67
2023-01-29T06:36:21.506Z,1.77
2023-01-29T06:39:15.948Z,1.35
2023-01-29T06:42:10.072Z,1.48
2023-01-29T06:45:03.563Z,2.47
2023-01-29T06:47:59.340Z,1.83
2023-01-29T06:50:55.112Z,1.23
2023-01-29T06:53:48.677Z,1.90
2023-01-29T06:56:42.957Z,1.73
2023-01-29T06:59:36.517Z,4.75
2023-01-29T07:02:29.498Z,4.00
2023-01-29T07:05:22.979Z,5.65
2023-01-29T07:08:16.588Z,4.40
2023-01-29T07:11:12.306Z,3.17
2023-01-29T07:14:07.254Z,3.75
2023-01-29T07:17:00.745Z,3.90
2023-01-29T07:19:53.600Z,2.45
2023-01-29T07:22:46.646Z,3.97
2023-01-29T07:25:39.655Z,3.63
2023-01-29T07:28:32.376Z,3.15
2023-01-29T07:31:27.106Z,2.58
2023-01-29T07:34:21.082Z,3.00
2023-01-29T07:37:14.765Z,2.60
2023-01-29T07:40:11.371Z,2.80
2023-01-29T07:43:06.844Z,3.03
2023-01-29T07:46:03.508Z,2.10
2023-01-29T07:48:59.378Z,3.03
2023-01-29T07:51:53.306Z,2.10
2023-01-29T07:54:46.642Z,2.47
2023-01-29T07:57:39.768Z,1.48
2023-01-29T08:00:33.592Z,1.92
2023-01-29T08:03:26.583Z,1.95
2023-01-29T08:06:20.948Z,3.20
2023-01-29T08:09:14.922Z,1.85
2023-01-29T08:12:08.083Z,2.55
2023-01-29T08:15:01.805Z,2.00
2023-01-29T08:17:58.084Z,2.35
2023-01-29T08:20:52.844Z,2.00
2023-01-29T08:23:47.882Z,1.92
2023-01-29T08:26:40.679Z,2.83
2023-01-29T08:29:33.739Z,5.15
2023-01-29T08:32:27.040Z,2.65
2023-01-29T08:35:21.043Z,2.53
2023-01-29T08:38:14.890Z,2.47
2023-01-29T08:41:09.302Z,3.15
2023-01-29T08:44:04.459Z,2.40
2023-01-29T08:46:57.631Z,2.17
2023-01-29T08:49:50.718Z,3.35
2023-01-29T08:52:44.161Z,3.80
2023-01-29T08:55:39.248Z,3.45
2023-01-29T08:58:33.966Z,2.80
2023-01-29T09:01:26.750Z,5.95
2023-01-29T09:04:19.622Z,4.80
2023-01-29T09:07:12.444Z,3.83
2023-01-29T09:10:06.337Z,2.85
2023-01-29T09:12:59.455Z,3.22
2023-01-29T09:15:54.125Z,3.75
2023-01-29T09:18:47.505Z,3.97
2023-01-29T09:21:40.654Z,3.72
2023-01-29T09:24:35.085Z,2.97
2023-01-29T09:27:28.463Z,3.92
2023-01-29T09:30:21.896Z,4.85
2023-01-29T09:33:15.958Z,2.92
2023-01-29T09:36:09.734Z,4.20
2023-01-29T09:39:02.730Z,5.20
2023-01-29T09:42:02.769Z,4.57
2023-01-29T09:45:02.303Z,3.88
2023-01-29T09:47:59.574Z,5.75
2023-01-29T09:50:56.789Z,6.88
2023-01-29T09:53:55.940Z,7.93
2023-01-29T09:56:51.891Z,4.20
2023-01-29T09:59:45.250Z,4.93
2023-01-29T10:02:58.148Z,10.60
2023-01-29T10:06:06.293Z,8.25
2023-01-29T10:09:31.788Z,7.15
2023-01-29T10:12:45.057Z,5.05
2023-01-29T10:15:48.868Z,6.03
2023-01-29T10:18:59.895Z,4.93
2023-01-29T10:22:13.143Z,7.22
2023-01-29T10:25:11.540Z,6.43
2023-01-29T10:28:04.760Z,4.45
2023-01-29T10:31:01.594Z,5.80
2023-01-29T10:34:02.510Z,4.63
2023-01-29T10:36:57.435Z,4.63
2023-01-29T10:39:52.232Z,6.75
2023-01-29T10:42:51.193Z,5.20
2023-01-29T10:45:50.619Z,4.35
2023-01-29T10:48:56.200Z,4.15
2023-01-29T10:52:06.138Z,4.53
2023-01-29T10:55:10.183Z,6.32
2023-01-29T10:58:15.156Z,4.47
2023-01-29T11:01:09.637Z,4.47
2023-01-29T11:04:05.022Z,6.93
2023-01-29T11:06:59.439Z,5.22
2023-01-29T11:09:58.693Z,4.38
2023-01-29T11:12:54.580Z,5.18
2023-01-29T11:15:47.776Z,5.20
2023-01-29T11:18:56.933Z,3.83
2023-01-29T11:21:57.337Z,4.90
2023-01-29T11:25:10.050Z,5.53
2023-01-29T11:28:05.314Z,5.50
2023-01-29T11:30:58.983Z,4.30
2023-01-29T11:33:54.666Z,4.03
2023-01-29T11:36:48.123Z,7.32
2023-01-29T11:39:46.997Z,3.88
2023-01-29T11:42:39.320Z,4.53
2023-01-29T11:45:34.847Z,4.80
2023-01-29T11:48:40.313Z,4.43
2023-01-29T11:51:34.871Z,6.22
2023-01-29T11:54:32.490Z,6.63
2023-01-29T11:57:32.277Z,7.00
2023-01-29T12:00:29.786Z,7.75
2023-01-29T12:03:32.883Z,4.75
2023-01-29T12:06:32.618Z,4.10
2023-01-29T12:09:28.114Z,3.88
2023-01-29T12:12:33.636Z,7.75
2023-01-29T12:15:26.882Z,4.32
2023-01-29T12:18:30.125Z,4.15
2023-01-29T12:21:32.860Z,5.20
2023-01-29T12:24:34.902Z,7.93
2023-01-29T12:27:33.010Z,5.90
2023-01-29T12:30:32.405Z,4.50
2023-01-29T12:33:37.963Z,3.10
2023-01-29T12:36:35.949Z,3.72
2023-01-29T12:39:28.720Z,3.70
2023-01-29T12:42:23.710Z,3.45
2023-01-29T12:45:20.451Z,5.68
2023-01-29T12:48:20.360Z,5.78
2023-01-29T12:51:19.851Z,4.57
2023-01-29T12:54:17.097Z,2.53
2023-01-29T12:57:19.704Z,4.05
2023-01-29T13:00:17.931Z,3.78
2023-01-29T13:03:20.124Z,3.72
2023-01-29T13:06:18.215Z,3.20
2023-01-29T13:09:18.089Z,3.05
2023-01-29T13:12:16.537Z,4.10
2023-01-29T13:15:21.318Z,5.82
2023-01-29T13:18:31.954Z,5.95
2023-01-29T13:21:31.972Z,5.60
2023-01-29T13:24:27.073Z,5.95
2023-01-29T13:27:25.092Z,6.68
2023-01-29T13:30:32.272Z,6.55
2023-01-29T13:33:25.710Z,4.00
2023-01-29T13:36:25.109Z,5.78
2023-01-29T13:39:25.479Z,4.50
2023-01-29T13:42:21.142Z,8.18
2023-01-29T13:45:21.332Z,7.75
2023-01-29T13:48:24.066Z,6.15
2023-01-29T13:51:22.622Z,9.18
2023-01-29T13:54:23.955Z,5.93
2023-01-29T13:57:49.477Z,5.30
2023-01-29T14:00:52.223Z,6.25
2023-01-29T14:04:04.193Z,6.22
2023-01-29T14:06:58.708Z,6.25
2023-01-29T14:10:15.434Z,5.82
2023-01-29T14:13:28.182Z,4.88
2023-01-29T14:16:36.668Z,4.30
2023-01-29T14:19:29.688Z,6.43
2023-01-29T14:22:26.583Z,5.15
2023-01-29T14:25:25.304Z,5.00
2023-01-29T14:28:25.015Z,3.85
2023-01-29T14:31:34.437Z,3.90
2023-01-29T14:34:30.954Z,6.88
2023-01-29T14:37:30.046Z,3.75
2023-01-29T14:40:27.071Z,4.03
2023-01-29T14:43:21.770Z,5.75
2023-01-29T14:46:45.581Z,6.65
2023-01-29T14:49:53.817Z,5.30
2023-01-29T14:52:48.584Z,7.20
2023-01-29T14:55:45.473Z,6.70
2023-01-29T14:58:42.819Z,4.10
2023-01-29T15:01:39.920Z,5.15
2023-01-29T15:04:39.460Z,4.95
2023-01-29T15:07:38.133Z,5.63
2023-01-29T15:10:39.911Z,4.53
2023-01-29T15:13:43.075Z,3.13
2023-01-29T15:16:47.008Z,7.00
2023-01-29T15:19:44.985Z,5.38
2023-01-29T15:22:43.890Z,7.95
2023-01-29T15:25:38.650Z,3.63
2023-01-29T15:28:34.009Z,3.63
2023-01-29T15:31:30.134Z,6.07
2023-01-29T15:34:23.362Z,5.93
2023-01-29T15:37:28.787Z,8.40
2023-01-29T15:40:23.056Z,3.70
2023-01-29T15:43:22.601Z,4.60
2023-01-29T15:46:23.074Z,4.40
2023-01-29T15:49:24.848Z,6.43
2023-01-29T15:52:22.314Z,4.25
2023-01-29T15:55:16.974Z,3.53
2023-01-29T15:58:16.739Z,3.22
2023-01-29T16:01:11.967Z,3.88
2023-01-29T16:04:06.088Z,3.85
2023-01-29T16:07:03.712Z,3.70
2023-01-29T16:09:57.881Z,3.20
2023-01-29T16:12:52.678Z,2.92
2023-01-29T16:15:56.741Z,2.45
2023-01-29T16:18:59.870Z,3.97
2023-01-29T16:21:58.154Z,3.13
2023-01-29T16:24:53.166Z,3.78
2023-01-29T16:27:47.031Z,3.38
2023-01-29T16:30:40.444Z,3.70
2023-01-29T16:33:36.854Z,4.30
2023-01-29T16:36:30.298Z,2.85
2023-01-29T16:39:26.964Z,3.83
2023-01-29T16:42:29.781Z,5.32
2023-01-29T16:45:28.257Z,2.80
2023-01-29T16:48:28.884Z,3.83
2023-01-29T16:51:29.134Z,5.30
2023-01-29T16:54:25.073Z,3.22
2023-01-29T16:57:22.615Z,3.25
2023-01-29T17:00:24.623Z,3.67
2023-01-29T17:03:19.653Z,3.53
2023-01-29T17:06:19.465Z,2.45
2023-01-29T17:09:22.302Z,3.10
2023-01-29T17:12:20.933Z,2.92
2023-01-29T17:18:18.077Z,1.88
2023-01-29T17:21:10.503Z,2.90
2023-01-29T17:24:03.957Z,2.38
2023-01-29T17:27:01.086Z,3.22
2023-01-29T17:29:53.768Z,5.30
2023-01-29T17:32:47.426Z,3.20
2023-01-29T17:35:43.003Z,2.95
2023-01-29T17:38:36.105Z,2.60
2023-01-29T17:41:31.197Z,2.08
2023-01-29T17:44:26.767Z,2.33
2023-01-29T17:47:20.055Z,2.67
2023-01-29T17:50:24.140Z,4.88
2023-01-29T17:53:19.111Z,3.88
2023-01-29T17:56:16.567Z,3.08
2023-01-29T17:59:14.212Z,3.38
2023-01-29T18:02:08.581Z,3.05
2023-01-29T18:05:21.657Z,4.28
2023-01-29T18:08:19.597Z,2.83
2023-01-29T18:11:14.302Z,3.55
2023-01-29T18:14:13.963Z,3.15
2023-01-29T18:17:07.794Z,3.83
2023-01-29T18:20:01.043Z,3.20
2023-01-29T18:22:54.567Z,7.93
2023-01-29T18:25:49.368Z,10.93
2023-01-29T18:28:43.694Z,7.95
2023-01-29T18:31:37.240Z,9.27
2023-01-29T18:34:30.670Z,8.18
2023-01-29T18:37:24.084Z,7.47
2023-01-29T18:40:17.865Z,7.55
2023-01-29T18:43:12.440Z,6.88
2023-01-29T18:46:07.376Z,7.82
2023-01-29T18:49:01.200Z,7.60
2023-01-29T18:51:55.116Z,8.13
2023-01-29T18:54:48.529Z,7.72
2023-01-29T18:58:25.502Z,7.10
2023-01-29T19:00:56.404Z,5.93
2023-01-29T19:03:50.043Z,6.50
2023-01-29T19:06:43.428Z,8.02
2023-01-29T19:09:36.795Z,6.38
2023-01-29T19:12:30.054Z,7.28
2023-01-29T19:15:23.540Z,7.38
2023-01-29T19:18:18.293Z,4.97
2023-01-29T19:21:14.324Z,5.80
2023-01-29T19:24:09.975Z,6.07
2023-01-29T19:27:03.307Z,5.10
2023-01-29T19:29:57.933Z,7.43
2023-01-29T19:32:51.281Z,6.32
2023-01-29T19:35:46.717Z,6.13
2023-01-29T19:38:40.282Z,6.05
2023-01-29T19:41:34.999Z,4.60
2023-01-29T19:44:28.744Z,6.22
2023-01-29T19:47:21.982Z,3.83
2023-01-29T19:50:15.236Z,5.10
2023-01-29T19:53:10.542Z,7.55
2023-01-29T19:56:06.265Z,7.18
2023-01-29T19:59:00.101Z,6.13
2023-01-29T20:01:53.160Z,7.63
2023-01-29T20:04:46.188Z,4.70
2023-01-29T20:07:39.985Z,4.75
2023-01-29T20:10:34.489Z,5.80
2023-01-29T20:13:28.185Z,4.88
2023-01-29T20:16:22.584Z,4.95
2023-01-29T20:19:16.087Z,4.53
2023-01-29T20:22:08.917Z,5.75
2023-01-29T20:25:02.241Z,4.88
2023-01-29T20:27:56.680Z,4.38
2023-01-29T20:30:50.161Z,4.88
2023-01-29T20:33:44.229Z,4.85
2023-01-29T20:36:37.091Z,6.07
2023-01-29T20:39:29.975Z,4.78
2023-01-29T20:42:22.927Z,4.70
2023-01-29T20:45:17.570Z,6.43
2023-01-29T20:48:11.088Z,4.55
2023-01-29T20:51:09.449Z,4.60
2023-01-29T20:54:03.258Z,4.53
2023-01-29T20:56:56.844Z,9.05
2023-01-29T20:59:50.215Z,11.68
2023-01-29T21:02:48.237Z,8.10
2023-01-29T21:05:41.196Z,10.90
2023-01-29T21:08:35.304Z,9.25
2023-01-29T21:11:29.506Z,6.60
2023-01-29T21:14:23.215Z,5.90
2023-01-29T21:17:16.168Z,13.98
2023-01-29T21:20:11.565Z,5.70
2023-01-29T21:23:07.067Z,5.45
2023-01-29T21:26:04.993Z,8.25
2023-01-29T21:28:58.217Z,5.97
2023-01-29T21:31:51.095Z,5.65
2023-01-29T21:34:44.081Z,7.90
2023-01-29T21:37:39.562Z,24.13
2023-01-29T21:40:33.161Z,16.08
2023-01-29T21:43:26.546Z,7.22
2023-01-29T21:46:20.267Z,9.63
2023-01-29T21:49:14.293Z,11.32
2023-01-29T21:52:07.613Z,6.25
2023-01-29T21:55:02.473Z,6.07
2023-01-29T21:57:56.019Z,6.10
2023-01-29T22:00:49.802Z,7.25
2023-01-29T22:03:45.043Z,9.43
2023-01-29T22:06:39.318Z,5.47
2023-01-29T22:09:32.009Z,6.47
2023-01-29T22:12:26.841Z,6.30
2023-01-29T22:15:21.600Z,4.38
2023-01-29T22:18:16.095Z,7.20
2023-01-29T22:21:09.049Z,5.53
2023-01-29T22:24:02.177Z,8.13
2023-01-29T22:26:55.204Z,5.57
2023-01-29T22:29:49.623Z,4.78
2023-01-29T22:32:43.199Z,4.85
2023-01-29T22:35:36.467Z,5.50
2023-01-29T22:38:30.312Z,9.77
2023-01-29T22:41:23.367Z,5.30
2023-01-29T22:44:16.992Z,6.00
2023-01-29T22:47:11.565Z,5.60
2023-01-29T22:50:07.285Z,4.07
2023-01-29T22:53:01.151Z,5.28
2023-01-29T22:55:57.331Z,4.28
2023-01-29T22:58:51.880Z,4.50
2023-01-29T23:01:45.278Z,4.95
2023-01-29T23:04:39.486Z,4.60
2023-01-29T23:07:33.411Z,5.35
2023-01-29T23:10:27.156Z,3.85
2023-01-29T23:13:20.456Z,4.13
2023-01-29T23:16:15.709Z,5.20
2023-01-29T23:19:09.372Z,6.15
2023-01-29T23:22:03.524Z,4.78
2023-01-29T23:24:57.020Z,4.68
2023-01-29T23:27:49.485Z,4.45
2023-01-29T23:30:45.147Z,3.95
2023-01-29T23:33:38.389Z,6.28
2023-01-29T23:36:31.143Z,4.35
2023-01-29T23:39:25.736Z,5.20
2023-01-29T23:42:19.101Z,5.43
2023-01-29T23:45:12.635Z,4.57
2023-01-29T23:48:06.836Z,4.40
2023-01-29T23:51:00.561Z,4.20
2023-01-29T23:53:54.166Z,3.92
2023-01-29T23:56:48.869Z,3.80
2023-01-29T23:59:42.043Z,4.93
